sensor_id;sensor_type;location;lat;lon;timestamp;P1;durP1;ratioP1;P2;durP2;ratioP2
23728;SDS011;12045;60.214;24.724;2022-12-29T00:00:59;12.63;;;5.27;;
23728;SDS011;12045;60.214;24.724;2022-12-29T00:03:27;13.87;;;5.30;;
23728;SDS011;12045;60.214;24.724;2022-12-29T00:05:56;11.77;;;5.33;;
23728;SDS011;12045;60.214;24.724;2022-12-29T00:08:24;10.97;;;5.30;;
23728;SDS011;12045;60.214;24.724;2022-12-29T00:11:11;14.63;;;5.47;;
23728;SDS011;12045;60.214;24.724;2022-12-29T00:13:43;14.00;;;5.20;;
23728;SDS011;12045;60.214;24.724;2022-12-29T00:16:29;15.37;;;5.30;;
23728;SDS011;12045;60.214;24.724;2022-12-29T00:18:57;14.27;;;5.30;;
23728;SDS011;12045;60.214;24.724;2022-12-29T00:21:25;13.43;;;4.80;;
23728;SDS011;12045;60.214;24.724;2022-12-29T00:24:16;14.07;;;5.73;;
23728;SDS011;12045;60.214;24.724;2022-12-29T00:27:09;14.63;;;5.40;;
23728;SDS011;12045;60.214;24.724;2022-12-29T00:29:57;13.70;;;4.67;;
23728;SDS011;12045;60.214;24.724;2022-12-29T00:32:43;12.90;;;5.00;;
23728;SDS011;12045;60.214;24.724;2022-12-29T00:35:34;13.93;;;5.03;;
23728;SDS011;12045;60.214;24.724;2022-12-29T00:38:35;13.20;;;5.57;;
23728;SDS011;12045;60.214;24.724;2022-12-29T00:41:22;14.93;;;4.60;;
23728;SDS011;12045;60.214;24.724;2022-12-29T00:44:09;16.50;;;4.70;;
23728;SDS011;12045;60.214;24.724;2022-12-29T00:46:39;11.87;;;4.47;;
23728;SDS011;12045;60.214;24.724;2022-12-29T00:49:09;13.77;;;5.10;;
23728;SDS011;12045;60.214;24.724;2022-12-29T00:51:57;16.87;;;4.90;;
23728;SDS011;12045;60.214;24.724;2022-12-29T00:54:24;13.57;;;4.80;;
23728;SDS011;12045;60.214;24.724;2022-12-29T00:56:52;16.30;;;4.60;;
23728;SDS011;12045;60.214;24.724;2022-12-29T00:59:20;12.77;;;4.70;;
23728;SDS011;12045;60.214;24.724;2022-12-29T01:01:47;11.53;;;4.27;;
23728;SDS011;12045;60.214;24.724;2022-12-29T01:04:15;11.83;;;4.40;;
23728;SDS011;12045;60.214;24.724;2022-12-29T01:06:44;14.07;;;4.23;;
23728;SDS011;12045;60.214;24.724;2022-12-29T01:09:11;12.63;;;4.20;;
23728;SDS011;12045;60.214;24.724;2022-12-29T01:11:57;10.10;;;4.07;;
23728;SDS011;12045;60.214;24.724;2022-12-29T01:14:25;9.50;;;3.80;;
23728;SDS011;12045;60.214;24.724;2022-12-29T01:16:54;12.10;;;3.83;;
23728;SDS011;12045;60.214;24.724;2022-12-29T01:19:22;12.53;;;3.80;;
23728;SDS011;12045;60.214;24.724;2022-12-29T01:21:50;16.07;;;3.83;;
23728;SDS011;12045;60.214;24.724;2022-12-29T01:24:18;11.43;;;3.70;;
23728;SDS011;12045;60.214;24.724;2022-12-29T01:26:46;9.87;;;3.83;;
23728;SDS011;12045;60.214;24.724;2022-12-29T01:29:15;12.47;;;4.27;;
23728;SDS011;12045;60.214;24.724;2022-12-29T01:31:43;10.30;;;3.90;;
23728;SDS011;12045;60.214;24.724;2022-12-29T01:34:11;14.33;;;3.73;;
23728;SDS011;12045;60.214;24.724;2022-12-29T01:36:39;10.83;;;4.03;;
23728;SDS011;12045;60.214;24.724;2022-12-29T01:39:07;12.77;;;4.03;;
23728;SDS011;12045;60.214;24.724;2022-12-29T01:41:34;8.43;;;3.77;;
23728;SDS011;12045;60.214;24.724;2022-12-29T01:44:02;11.70;;;3.70;;
23728;SDS011;12045;60.214;24.724;2022-12-29T01:46:39;11.20;;;3.93;;
23728;SDS011;12045;60.214;24.724;2022-12-29T01:49:13;13.40;;;3.70;;
23728;SDS011;12045;60.214;24.724;2022-12-29T01:51:56;8.33;;;3.50;;
23728;SDS011;12045;60.214;24.724;2022-12-29T01:55:00;13.90;;;3.93;;
23728;SDS011;12045;60.214;24.724;2022-12-29T01:57:21;9.80;;;3.30;;
23728;SDS011;12045;60.214;24.724;2022-12-29T01:59:58;9.37;;;3.53;;
23728;SDS011;12045;60.214;24.724;2022-12-29T02:02:32;13.20;;;3.57;;
23728;SDS011;12045;60.214;24.724;2022-12-29T02:05:03;15.57;;;4.30;;
23728;SDS011;12045;60.214;24.724;2022-12-29T02:07:35;7.50;;;3.87;;
23728;SDS011;12045;60.214;24.724;2022-12-29T02:10:04;12.60;;;4.07;;
23728;SDS011;12045;60.214;24.724;2022-12-29T02:12:33;10.90;;;3.93;;
23728;SDS011;12045;60.214;24.724;2022-12-29T02:15:01;12.60;;;4.53;;
23728;SDS011;12045;60.214;24.724;2022-12-29T02:17:41;12.47;;;3.80;;
23728;SDS011;12045;60.214;24.724;2022-12-29T02:20:34;14.13;;;4.47;;
23728;SDS011;12045;60.214;24.724;2022-12-29T02:41:36;12.53;;;4.57;;
23728;SDS011;12045;60.214;24.724;2022-12-29T02:46:47;10.67;;;4.80;;
23728;SDS011;12045;60.214;24.724;2022-12-29T02:49:30;14.47;;;5.20;;
23728;SDS011;12045;60.214;24.724;2022-12-29T02:52:06;12.53;;;5.00;;
23728;SDS011;12045;60.214;24.724;2022-12-29T02:54:37;5.67;;;3.50;;
23728;SDS011;12045;60.214;24.724;2022-12-29T03:00:07;9.23;;;4.07;;
23728;SDS011;12045;60.214;24.724;2022-12-29T03:05:56;8.13;;;4.30;;
23728;SDS011;12045;60.214;24.724;2022-12-29T03:11:03;9.17;;;4.40;;
23728;SDS011;12045;60.214;24.724;2022-12-29T03:16:55;12.33;;;3.60;;
23728;SDS011;12045;60.214;24.724;2022-12-29T03:19:31;10.37;;;4.60;;
23728;SDS011;12045;60.214;24.724;2022-12-29T03:22:07;8.63;;;4.27;;
23728;SDS011;12045;60.214;24.724;2022-12-29T03:25:05;8.70;;;4.20;;
23728;SDS011;12045;60.214;24.724;2022-12-29T03:27:44;11.40;;;3.97;;
23728;SDS011;12045;60.214;24.724;2022-12-29T03:30:16;11.53;;;4.27;;
23728;SDS011;12045;60.214;24.724;2022-12-29T03:32:46;14.20;;;4.20;;
23728;SDS011;12045;60.214;24.724;2022-12-29T03:35:19;8.23;;;4.30;;
23728;SDS011;12045;60.214;24.724;2022-12-29T03:40:46;6.27;;;3.50;;
23728;SDS011;12045;60.214;24.724;2022-12-29T03:43:17;12.77;;;4.67;;
23728;SDS011;12045;60.214;24.724;2022-12-29T03:45:45;10.17;;;5.30;;
23728;SDS011;12045;60.214;24.724;2022-12-29T03:48:13;10.73;;;4.67;;
23728;SDS011;12045;60.214;24.724;2022-12-29T03:50:41;13.53;;;5.60;;
23728;SDS011;12045;60.214;24.724;2022-12-29T03:53:09;11.93;;;4.83;;
23728;SDS011;12045;60.214;24.724;2022-12-29T03:55:36;13.37;;;5.00;;
23728;SDS011;12045;60.214;24.724;2022-12-29T03:58:04;10.80;;;4.93;;
23728;SDS011;12045;60.214;24.724;2022-12-29T04:00:31;13.10;;;4.87;;
23728;SDS011;12045;60.214;24.724;2022-12-29T04:03:00;10.37;;;4.70;;
23728;SDS011;12045;60.214;24.724;2022-12-29T04:05:27;10.53;;;5.43;;
23728;SDS011;12045;60.214;24.724;2022-12-29T04:07:55;10.07;;;5.00;;
23728;SDS011;12045;60.214;24.724;2022-12-29T04:10:22;12.47;;;5.17;;
23728;SDS011;12045;60.214;24.724;2022-12-29T04:12:49;9.37;;;4.43;;
23728;SDS011;12045;60.214;24.724;2022-12-29T04:15:17;10.03;;;4.40;;
23728;SDS011;12045;60.214;24.724;2022-12-29T04:17:44;14.17;;;4.80;;
23728;SDS011;12045;60.214;24.724;2022-12-29T04:20:12;9.87;;;4.10;;
23728;SDS011;12045;60.214;24.724;2022-12-29T04:23:02;9.30;;;4.30;;
23728;SDS011;12045;60.214;24.724;2022-12-29T04:25:32;9.80;;;4.33;;
23728;SDS011;12045;60.214;24.724;2022-12-29T04:28:00;9.87;;;3.93;;
23728;SDS011;12045;60.214;24.724;2022-12-29T04:30:27;11.10;;;4.40;;
23728;SDS011;12045;60.214;24.724;2022-12-29T04:32:55;9.53;;;4.27;;
23728;SDS011;12045;60.214;24.724;2022-12-29T04:35:22;9.27;;;4.17;;
23728;SDS011;12045;60.214;24.724;2022-12-29T04:37:50;7.07;;;4.23;;
23728;SDS011;12045;60.214;24.724;2022-12-29T04:40:17;11.13;;;4.70;;
23728;SDS011;12045;60.214;24.724;2022-12-29T04:42:45;11.53;;;3.67;;
23728;SDS011;12045;60.214;24.724;2022-12-29T04:45:12;10.43;;;4.40;;
23728;SDS011;12045;60.214;24.724;2022-12-29T04:47:40;12.23;;;4.87;;
23728;SDS011;12045;60.214;24.724;2022-12-29T04:50:07;9.10;;;4.40;;
23728;SDS011;12045;60.214;24.724;2022-12-29T04:52:35;9.82;;;4.97;;
23728;SDS011;12045;60.214;24.724;2022-12-29T04:55:03;13.37;;;5.00;;
23728;SDS011;12045;60.214;24.724;2022-12-29T04:57:31;10.50;;;4.77;;
23728;SDS011;12045;60.214;24.724;2022-12-29T04:59:59;11.50;;;5.07;;
23728;SDS011;12045;60.214;24.724;2022-12-29T05:02:26;12.40;;;4.50;;
23728;SDS011;12045;60.214;24.724;2022-12-29T05:04:54;9.93;;;5.10;;
23728;SDS011;12045;60.214;24.724;2022-12-29T05:07:21;9.77;;;5.50;;
23728;SDS011;12045;60.214;24.724;2022-12-29T05:09:49;13.33;;;4.80;;
23728;SDS011;12045;60.214;24.724;2022-12-29T05:12:16;10.03;;;5.13;;
23728;SDS011;12045;60.214;24.724;2022-12-29T05:14:44;12.23;;;5.30;;
23728;SDS011;12045;60.214;24.724;2022-12-29T05:17:11;11.53;;;5.20;;
23728;SDS011;12045;60.214;24.724;2022-12-29T05:19:39;13.53;;;4.60;;
23728;SDS011;12045;60.214;24.724;2022-12-29T05:22:06;9.13;;;4.83;;
23728;SDS011;12045;60.214;24.724;2022-12-29T05:24:34;8.43;;;4.57;;
23728;SDS011;12045;60.214;24.724;2022-12-29T05:27:01;12.07;;;5.17;;
23728;SDS011;12045;60.214;24.724;2022-12-29T05:29:29;10.47;;;4.33;;
23728;SDS011;12045;60.214;24.724;2022-12-29T05:31:56;9.03;;;4.43;;
23728;SDS011;12045;60.214;24.724;2022-12-29T05:34:24;9.50;;;4.53;;
23728;SDS011;12045;60.214;24.724;2022-12-29T05:36:51;12.67;;;4.57;;
23728;SDS011;12045;60.214;24.724;2022-12-29T05:39:19;12.93;;;4.50;;
23728;SDS011;12045;60.214;24.724;2022-12-29T05:41:46;9.03;;;4.47;;
23728;SDS011;12045;60.214;24.724;2022-12-29T05:44:14;9.63;;;4.13;;
23728;SDS011;12045;60.214;24.724;2022-12-29T05:46:43;11.77;;;4.70;;
23728;SDS011;12045;60.214;24.724;2022-12-29T05:49:11;9.63;;;4.20;;
23728;SDS011;12045;60.214;24.724;2022-12-29T05:51:39;11.47;;;5.23;;
23728;SDS011;12045;60.214;24.724;2022-12-29T05:54:07;10.77;;;5.03;;
23728;SDS011;12045;60.214;24.724;2022-12-29T05:56:35;10.13;;;5.00;;
23728;SDS011;12045;60.214;24.724;2022-12-29T05:59:02;8.97;;;5.03;;
23728;SDS011;12045;60.214;24.724;2022-12-29T06:01:29;13.17;;;5.30;;
23728;SDS011;12045;60.214;24.724;2022-12-29T06:03:57;9.40;;;4.97;;
23728;SDS011;12045;60.214;24.724;2022-12-29T06:06:25;11.83;;;5.23;;
23728;SDS011;12045;60.214;24.724;2022-12-29T06:08:52;8.90;;;5.13;;
23728;SDS011;12045;60.214;24.724;2022-12-29T06:11:20;8.77;;;4.57;;
23728;SDS011;12045;60.214;24.724;2022-12-29T06:13:48;12.83;;;4.80;;
23728;SDS011;12045;60.214;24.724;2022-12-29T06:16:16;9.60;;;4.63;;
23728;SDS011;12045;60.214;24.724;2022-12-29T06:18:43;9.70;;;4.97;;
23728;SDS011;12045;60.214;24.724;2022-12-29T06:21:11;10.20;;;4.77;;
23728;SDS011;12045;60.214;24.724;2022-12-29T06:23:38;10.47;;;5.17;;
23728;SDS011;12045;60.214;24.724;2022-12-29T06:26:05;8.77;;;4.43;;
23728;SDS011;12045;60.214;24.724;2022-12-29T06:28:33;9.23;;;4.63;;
23728;SDS011;12045;60.214;24.724;2022-12-29T06:31:00;9.07;;;4.40;;
23728;SDS011;12045;60.214;24.724;2022-12-29T06:33:29;8.17;;;4.17;;
23728;SDS011;12045;60.214;24.724;2022-12-29T06:35:57;8.37;;;4.47;;
23728;SDS011;12045;60.214;24.724;2022-12-29T06:38:24;8.13;;;4.07;;
23728;SDS011;12045;60.214;24.724;2022-12-29T06:40:51;6.93;;;4.00;;
23728;SDS011;12045;60.214;24.724;2022-12-29T06:43:19;5.87;;;3.63;;
23728;SDS011;12045;60.214;24.724;2022-12-29T06:45:46;9.53;;;4.40;;
23728;SDS011;12045;60.214;24.724;2022-12-29T06:48:15;9.13;;;4.43;;
23728;SDS011;12045;60.214;24.724;2022-12-29T06:50:42;10.07;;;4.13;;
23728;SDS011;12045;60.214;24.724;2022-12-29T06:53:10;9.67;;;4.10;;
23728;SDS011;12045;60.214;24.724;2022-12-29T06:55:37;8.93;;;3.50;;
23728;SDS011;12045;60.214;24.724;2022-12-29T06:58:05;9.47;;;3.90;;
23728;SDS011;12045;60.214;24.724;2022-12-29T07:00:32;9.37;;;4.43;;
23728;SDS011;12045;60.214;24.724;2022-12-29T07:03:00;9.37;;;4.50;;
23728;SDS011;12045;60.214;24.724;2022-12-29T07:05:28;8.77;;;4.60;;
23728;SDS011;12045;60.214;24.724;2022-12-29T07:07:58;8.10;;;4.70;;
23728;SDS011;12045;60.214;24.724;2022-12-29T07:10:26;9.47;;;4.20;;
23728;SDS011;12045;60.214;24.724;2022-12-29T07:12:54;10.10;;;4.23;;
23728;SDS011;12045;60.214;24.724;2022-12-29T07:15:22;9.27;;;5.13;;
23728;SDS011;12045;60.214;24.724;2022-12-29T07:17:49;9.33;;;4.63;;
23728;SDS011;12045;60.214;24.724;2022-12-29T07:20:17;8.87;;;4.47;;
23728;SDS011;12045;60.214;24.724;2022-12-29T07:22:52;8.50;;;4.53;;
23728;SDS011;12045;60.214;24.724;2022-12-29T07:25:20;7.57;;;4.73;;
23728;SDS011;12045;60.214;24.724;2022-12-29T07:27:48;9.83;;;4.60;;
23728;SDS011;12045;60.214;24.724;2022-12-29T07:30:15;9.47;;;5.07;;
23728;SDS011;12045;60.214;24.724;2022-12-29T07:32:43;10.17;;;4.80;;
23728;SDS011;12045;60.214;24.724;2022-12-29T07:35:11;9.03;;;4.87;;
23728;SDS011;12045;60.214;24.724;2022-12-29T07:37:38;10.73;;;5.70;;
23728;SDS011;12045;60.214;24.724;2022-12-29T07:40:06;11.00;;;5.20;;
23728;SDS011;12045;60.214;24.724;2022-12-29T07:42:34;8.43;;;4.67;;
23728;SDS011;12045;60.214;24.724;2022-12-29T07:45:01;9.03;;;5.03;;
23728;SDS011;12045;60.214;24.724;2022-12-29T07:47:30;8.20;;;4.93;;
23728;SDS011;12045;60.214;24.724;2022-12-29T07:49:57;9.87;;;5.10;;
23728;SDS011;12045;60.214;24.724;2022-12-29T07:52:24;10.30;;;5.50;;
23728;SDS011;12045;60.214;24.724;2022-12-29T07:54:52;10.43;;;5.47;;
23728;SDS011;12045;60.214;24.724;2022-12-29T07:57:19;9.00;;;5.50;;
23728;SDS011;12045;60.214;24.724;2022-12-29T07:59:53;10.60;;;5.17;;
23728;SDS011;12045;60.214;24.724;2022-12-29T08:02:21;9.83;;;5.27;;
23728;SDS011;12045;60.214;24.724;2022-12-29T08:04:49;9.43;;;5.17;;
23728;SDS011;12045;60.214;24.724;2022-12-29T08:07:17;9.93;;;5.07;;
23728;SDS011;12045;60.214;24.724;2022-12-29T08:09:44;9.60;;;5.40;;
23728;SDS011;12045;60.214;24.724;2022-12-29T08:12:12;10.73;;;5.20;;
23728;SDS011;12045;60.214;24.724;2022-12-29T08:14:39;11.10;;;5.40;;
23728;SDS011;12045;60.214;24.724;2022-12-29T08:17:06;12.90;;;5.63;;
23728;SDS011;12045;60.214;24.724;2022-12-29T08:19:34;12.37;;;5.33;;
23728;SDS011;12045;60.214;24.724;2022-12-29T08:22:01;8.50;;;4.93;;
23728;SDS011;12045;60.214;24.724;2022-12-29T08:24:29;7.60;;;4.87;;
23728;SDS011;12045;60.214;24.724;2022-12-29T08:26:56;6.53;;;4.50;;
23728;SDS011;12045;60.214;24.724;2022-12-29T08:29:24;10.50;;;5.30;;
23728;SDS011;12045;60.214;24.724;2022-12-29T08:31:51;8.20;;;4.93;;
23728;SDS011;12045;60.214;24.724;2022-12-29T08:34:19;9.23;;;5.23;;
23728;SDS011;12045;60.214;24.724;2022-12-29T08:36:46;9.10;;;5.53;;
23728;SDS011;12045;60.214;24.724;2022-12-29T08:39:14;7.67;;;4.73;;
23728;SDS011;12045;60.214;24.724;2022-12-29T08:41:42;11.37;;;5.47;;
23728;SDS011;12045;60.214;24.724;2022-12-29T08:44:09;10.63;;;4.97;;
23728;SDS011;12045;60.214;24.724;2022-12-29T08:46:37;8.80;;;5.53;;
23728;SDS011;12045;60.214;24.724;2022-12-29T08:49:05;14.77;;;6.40;;
23728;SDS011;12045;60.214;24.724;2022-12-29T08:51:32;12.50;;;6.20;;
23728;SDS011;12045;60.214;24.724;2022-12-29T08:54:00;12.40;;;5.73;;
23728;SDS011;12045;60.214;24.724;2022-12-29T08:56:30;12.50;;;5.67;;
23728;SDS011;12045;60.214;24.724;2022-12-29T08:58:58;12.53;;;6.30;;
23728;SDS011;12045;60.214;24.724;2022-12-29T09:01:26;14.63;;;6.10;;
23728;SDS011;12045;60.214;24.724;2022-12-29T09:03:53;10.90;;;5.90;;
23728;SDS011;12045;60.214;24.724;2022-12-29T09:06:41;10.83;;;5.07;;
23728;SDS011;12045;60.214;24.724;2022-12-29T09:09:10;13.80;;;5.50;;
23728;SDS011;12045;60.214;24.724;2022-12-29T09:11:38;10.57;;;5.67;;
23728;SDS011;12045;60.214;24.724;2022-12-29T09:14:05;11.60;;;5.97;;
23728;SDS011;12045;60.214;24.724;2022-12-29T09:16:33;10.67;;;5.77;;
23728;SDS011;12045;60.214;24.724;2022-12-29T09:19:01;13.83;;;6.50;;
23728;SDS011;12045;60.214;24.724;2022-12-29T09:21:29;9.40;;;4.30;;
23728;SDS011;12045;60.214;24.724;2022-12-29T09:23:57;12.30;;;6.23;;
23728;SDS011;12045;60.214;24.724;2022-12-29T09:26:25;12.97;;;6.40;;
23728;SDS011;12045;60.214;24.724;2022-12-29T09:28:52;10.27;;;5.80;;
23728;SDS011;12045;60.214;24.724;2022-12-29T09:31:19;10.50;;;6.47;;
23728;SDS011;12045;60.214;24.724;2022-12-29T09:33:47;11.27;;;5.37;;
23728;SDS011;12045;60.214;24.724;2022-12-29T09:36:14;9.23;;;5.57;;
23728;SDS011;12045;60.214;24.724;2022-12-29T09:38:42;12.20;;;6.10;;
23728;SDS011;12045;60.214;24.724;2022-12-29T09:47:23;11.80;;;6.40;;
23728;SDS011;12045;60.214;24.724;2022-12-29T09:49:54;9.70;;;5.27;;
23728;SDS011;12045;60.214;24.724;2022-12-29T09:52:26;9.20;;;5.13;;
23728;SDS011;12045;60.214;24.724;2022-12-29T09:55:04;9.97;;;5.80;;
23728;SDS011;12045;60.214;24.724;2022-12-29T10:03:20;11.07;;;5.67;;
23728;SDS011;12045;60.214;24.724;2022-12-29T10:06:05;9.47;;;5.90;;
23728;SDS011;12045;60.214;24.724;2022-12-29T10:14:35;11.47;;;6.37;;
23728;SDS011;12045;60.214;24.724;2022-12-29T10:25:22;11.10;;;6.20;;
23728;SDS011;12045;60.214;24.724;2022-12-29T10:27:59;12.50;;;6.53;;
23728;SDS011;12045;60.214;24.724;2022-12-29T10:30:32;11.30;;;5.80;;
23728;SDS011;12045;60.214;24.724;2022-12-29T10:33:01;12.03;;;6.70;;
23728;SDS011;12045;60.214;24.724;2022-12-29T10:35:38;11.20;;;5.90;;
23728;SDS011;12045;60.214;24.724;2022-12-29T10:43:28;14.73;;;7.00;;
23728;SDS011;12045;60.214;24.724;2022-12-29T10:45:58;15.87;;;7.33;;
23728;SDS011;12045;60.214;24.724;2022-12-29T10:48:30;12.93;;;7.27;;
23728;SDS011;12045;60.214;24.724;2022-12-29T10:51:00;11.37;;;6.23;;
23728;SDS011;12045;60.214;24.724;2022-12-29T10:54:17;13.87;;;6.70;;
23728;SDS011;12045;60.214;24.724;2022-12-29T10:56:31;11.07;;;6.80;;
23728;SDS011;12045;60.214;24.724;2022-12-29T10:59:06;8.67;;;5.03;;
23728;SDS011;12045;60.214;24.724;2022-12-29T11:07:06;11.17;;;6.23;;
23728;SDS011;12045;60.214;24.724;2022-12-29T11:09:41;11.43;;;6.30;;
23728;SDS011;12045;60.214;24.724;2022-12-29T11:12:28;12.73;;;6.60;;
23728;SDS011;12045;60.214;24.724;2022-12-29T11:15:15;10.07;;;5.47;;
23728;SDS011;12045;60.214;24.724;2022-12-29T11:17:47;13.27;;;7.33;;
23728;SDS011;12045;60.214;24.724;2022-12-29T11:23:20;9.90;;;5.43;;
23728;SDS011;12045;60.214;24.724;2022-12-29T11:28:39;12.80;;;7.13;;
23728;SDS011;12045;60.214;24.724;2022-12-29T11:31:08;10.53;;;5.60;;
23728;SDS011;12045;60.214;24.724;2022-12-29T11:33:37;11.57;;;6.83;;
23728;SDS011;12045;60.214;24.724;2022-12-29T11:36:16;10.77;;;6.60;;
23728;SDS011;12045;60.214;24.724;2022-12-29T11:38:53;11.77;;;6.53;;
23728;SDS011;12045;60.214;24.724;2022-12-29T11:41:23;12.23;;;6.07;;
23728;SDS011;12045;60.214;24.724;2022-12-29T11:43:53;12.37;;;6.83;;
23728;SDS011;12045;60.214;24.724;2022-12-29T11:46:25;10.77;;;6.67;;
23728;SDS011;12045;60.214;24.724;2022-12-29T11:48:58;14.03;;;6.67;;
23728;SDS011;12045;60.214;24.724;2022-12-29T11:51:37;10.37;;;6.27;;
23728;SDS011;12045;60.214;24.724;2022-12-29T11:54:18;13.23;;;6.90;;
23728;SDS011;12045;60.214;24.724;2022-12-29T11:56:50;13.13;;;6.80;;
23728;SDS011;12045;60.214;24.724;2022-12-29T12:01:57;13.83;;;7.13;;
23728;SDS011;12045;60.214;24.724;2022-12-29T12:04:27;14.03;;;6.93;;
23728;SDS011;12045;60.214;24.724;2022-12-29T12:09:58;13.33;;;6.27;;
23728;SDS011;12045;60.214;24.724;2022-12-29T12:13:08;13.57;;;7.07;;
23728;SDS011;12045;60.214;24.724;2022-12-29T12:15:40;15.07;;;7.00;;
23728;SDS011;12045;60.214;24.724;2022-12-29T12:18:26;15.27;;;7.43;;
23728;SDS011;12045;60.214;24.724;2022-12-29T12:29:41;14.47;;;6.93;;
23728;SDS011;12045;60.214;24.724;2022-12-29T12:35:24;15.87;;;7.40;;
23728;SDS011;12045;60.214;24.724;2022-12-29T13:03:39;16.07;;;7.17;;
23728;SDS011;12045;60.214;24.724;2022-12-29T13:12:05;17.20;;;8.20;;
23728;SDS011;12045;60.214;24.724;2022-12-29T13:14:40;14.20;;;7.47;;
23728;SDS011;12045;60.214;24.724;2022-12-29T13:17:37;16.13;;;7.83;;
23728;SDS011;12045;60.214;24.724;2022-12-29T13:28:32;18.80;;;8.57;;
23728;SDS011;12045;60.214;24.724;2022-12-29T13:31:27;20.60;;;8.70;;
23728;SDS011;12045;60.214;24.724;2022-12-29T13:34:12;18.03;;;7.43;;
23728;SDS011;12045;60.214;24.724;2022-12-29T13:36:43;18.70;;;7.60;;
23728;SDS011;12045;60.214;24.724;2022-12-29T13:39:23;17.10;;;8.83;;
23728;SDS011;12045;60.214;24.724;2022-12-29T13:42:01;12.77;;;6.60;;
23728;SDS011;12045;60.214;24.724;2022-12-29T13:47:06;18.83;;;9.20;;
23728;SDS011;12045;60.214;24.724;2022-12-29T13:49:56;18.53;;;8.87;;
23728;SDS011;12045;60.214;24.724;2022-12-29T13:52:39;19.10;;;9.37;;
23728;SDS011;12045;60.214;24.724;2022-12-29T13:55:40;13.30;;;6.87;;
23728;SDS011;12045;60.214;24.724;2022-12-29T13:58:31;15.40;;;8.07;;
23728;SDS011;12045;60.214;24.724;2022-12-29T14:01:17;17.73;;;9.03;;
23728;SDS011;12045;60.214;24.724;2022-12-29T14:03:58;18.00;;;8.17;;
23728;SDS011;12045;60.214;24.724;2022-12-29T14:06:28;20.47;;;9.50;;
23728;SDS011;12045;60.214;24.724;2022-12-29T14:09:05;14.93;;;7.27;;
23728;SDS011;12045;60.214;24.724;2022-12-29T14:12:00;19.90;;;9.10;;
23728;SDS011;12045;60.214;24.724;2022-12-29T14:14:29;15.40;;;5.87;;
23728;SDS011;12045;60.214;24.724;2022-12-29T14:17:10;14.70;;;6.80;;
23728;SDS011;12045;60.214;24.724;2022-12-29T14:19:42;18.73;;;8.77;;
23728;SDS011;12045;60.214;24.724;2022-12-29T14:22:11;23.53;;;9.03;;
23728;SDS011;12045;60.214;24.724;2022-12-29T14:24:41;19.50;;;9.20;;
23728;SDS011;12045;60.214;24.724;2022-12-29T14:33:00;17.80;;;7.83;;
23728;SDS011;12045;60.214;24.724;2022-12-29T14:34:59;20.77;;;8.80;;
23728;SDS011;12045;60.214;24.724;2022-12-29T14:37:47;18.27;;;8.90;;
23728;SDS011;12045;60.214;24.724;2022-12-29T14:40:31;18.17;;;8.90;;
23728;SDS011;12045;60.214;24.724;2022-12-29T14:43:00;22.23;;;8.73;;
23728;SDS011;12045;60.214;24.724;2022-12-29T14:45:28;21.70;;;9.47;;
23728;SDS011;12045;60.214;24.724;2022-12-29T14:47:59;16.03;;;7.73;;
23728;SDS011;12045;60.214;24.724;2022-12-29T14:53:40;18.30;;;8.37;;
23728;SDS011;12045;60.214;24.724;2022-12-29T14:56:11;15.50;;;8.17;;
23728;SDS011;12045;60.214;24.724;2022-12-29T14:58:44;15.70;;;8.30;;
23728;SDS011;12045;60.214;24.724;2022-12-29T15:01:24;13.63;;;6.63;;
23728;SDS011;12045;60.214;24.724;2022-12-29T15:03:54;13.07;;;6.03;;
23728;SDS011;12045;60.214;24.724;2022-12-29T15:06:27;15.13;;;7.63;;
23728;SDS011;12045;60.214;24.724;2022-12-29T15:09:04;15.70;;;7.67;;
23728;SDS011;12045;60.214;24.724;2022-12-29T15:11:44;18.07;;;7.37;;
23728;SDS011;12045;60.214;24.724;2022-12-29T15:14:34;18.10;;;7.97;;
23728;SDS011;12045;60.214;24.724;2022-12-29T15:19:58;16.50;;;7.10;;
23728;SDS011;12045;60.214;24.724;2022-12-29T15:22:27;19.50;;;8.07;;
23728;SDS011;12045;60.214;24.724;2022-12-29T15:24:54;13.47;;;7.47;;
23728;SDS011;12045;60.214;24.724;2022-12-29T15:27:24;12.13;;;6.23;;
23728;SDS011;12045;60.214;24.724;2022-12-29T15:29:56;16.17;;;7.83;;
23728;SDS011;12045;60.214;24.724;2022-12-29T15:32:26;14.43;;;8.00;;
23728;SDS011;12045;60.214;24.724;2022-12-29T15:34:56;13.80;;;6.97;;
23728;SDS011;12045;60.214;24.724;2022-12-29T15:37:28;15.20;;;7.30;;
23728;SDS011;12045;60.214;24.724;2022-12-29T15:40:00;15.17;;;6.77;;
23728;SDS011;12045;60.214;24.724;2022-12-29T15:42:36;13.10;;;6.73;;
23728;SDS011;12045;60.214;24.724;2022-12-29T15:45:32;12.93;;;6.83;;
23728;SDS011;12045;60.214;24.724;2022-12-29T15:48:01;15.33;;;7.37;;
23728;SDS011;12045;60.214;24.724;2022-12-29T15:50:30;12.80;;;6.50;;
23728;SDS011;12045;60.214;24.724;2022-12-29T15:53:00;13.73;;;6.73;;
23728;SDS011;12045;60.214;24.724;2022-12-29T15:55:34;13.10;;;6.43;;
23728;SDS011;12045;60.214;24.724;2022-12-29T15:58:15;12.90;;;6.10;;
23728;SDS011;12045;60.214;24.724;2022-12-29T16:00:50;11.17;;;6.13;;
23728;SDS011;12045;60.214;24.724;2022-12-29T16:03:20;11.70;;;6.33;;
23728;SDS011;12045;60.214;24.724;2022-12-29T16:05:51;10.83;;;5.97;;
23728;SDS011;12045;60.214;24.724;2022-12-29T16:08:33;11.03;;;6.83;;
23728;SDS011;12045;60.214;24.724;2022-12-29T16:11:21;12.73;;;6.63;;
23728;SDS011;12045;60.214;24.724;2022-12-29T16:13:52;14.00;;;7.30;;
23728;SDS011;12045;60.214;24.724;2022-12-29T16:16:22;14.03;;;7.00;;
23728;SDS011;12045;60.214;24.724;2022-12-29T16:18:57;11.83;;;6.73;;
23728;SDS011;12045;60.214;24.724;2022-12-29T16:21:29;14.87;;;7.07;;
23728;SDS011;12045;60.214;24.724;2022-12-29T16:24:01;13.17;;;6.57;;
23728;SDS011;12045;60.214;24.724;2022-12-29T16:26:32;12.60;;;6.33;;
23728;SDS011;12045;60.214;24.724;2022-12-29T16:29:01;13.60;;;7.20;;
23728;SDS011;12045;60.214;24.724;2022-12-29T16:34:09;12.00;;;6.43;;
23728;SDS011;12045;60.214;24.724;2022-12-29T16:36:55;10.60;;;5.77;;
23728;SDS011;12045;60.214;24.724;2022-12-29T16:41:53;8.00;;;4.60;;
23728;SDS011;12045;60.214;24.724;2022-12-29T16:44:26;10.57;;;5.80;;
23728;SDS011;12045;60.214;24.724;2022-12-29T16:47:04;17.87;;;6.63;;
23728;SDS011;12045;60.214;24.724;2022-12-29T16:49:47;10.37;;;5.70;;
23728;SDS011;12045;60.214;24.724;2022-12-29T16:52:20;12.97;;;6.97;;
23728;SDS011;12045;60.214;24.724;2022-12-29T16:54:56;12.30;;;7.07;;
23728;SDS011;12045;60.214;24.724;2022-12-29T16:57:31;12.07;;;6.63;;
23728;SDS011;12045;60.214;24.724;2022-12-29T17:00:04;11.53;;;6.53;;
23728;SDS011;12045;60.214;24.724;2022-12-29T17:02:34;13.73;;;6.70;;
23728;SDS011;12045;60.214;24.724;2022-12-29T17:05:15;11.53;;;6.43;;
23728;SDS011;12045;60.214;24.724;2022-12-29T17:07:44;13.67;;;6.90;;
23728;SDS011;12045;60.214;24.724;2022-12-29T17:10:13;15.50;;;6.83;;
23728;SDS011;12045;60.214;24.724;2022-12-29T17:12:45;15.00;;;7.10;;
23728;SDS011;12045;60.214;24.724;2022-12-29T17:15:21;12.03;;;5.97;;
23728;SDS011;12045;60.214;24.724;2022-12-29T17:17:51;12.93;;;6.63;;
23728;SDS011;12045;60.214;24.724;2022-12-29T17:22:52;11.50;;;5.33;;
23728;SDS011;12045;60.214;24.724;2022-12-29T17:25:21;14.63;;;6.10;;
23728;SDS011;12045;60.214;24.724;2022-12-29T17:28:00;11.43;;;5.67;;
23728;SDS011;12045;60.214;24.724;2022-12-29T17:30:31;13.10;;;6.30;;
23728;SDS011;12045;60.214;24.724;2022-12-29T17:33:04;13.23;;;6.83;;